Latest Weather Observations for Charlton

IDV60801

Issued at 7:05 pm EST Tuesday 22 July 2014 (issued every 30 minutes, with the page automatically refreshed every 10 minutes)

About weather observations | Map of weather stations | Latest weather observations for VIC | Other Formats
Station Details ID: 080128 Name: CHARLTON Lat: -36.28 Lon: 143.33 Height: 131.7 m
Data from the previous 72 hours. | See also: Recent months at Charlton
Date/Time
EST
Temp
°C
App
Temp
°C
Dew
Point
Rel
Hum
%
Delta-T
°C
Wind Press
QNH
hPa
Press
MSL
hPa
Rain
since 9 am
mm
Dir
 
Spd
km/h
Gust
km/h
Spd
kts
Gust
kts
22/07:00pm 3.9 2.2 1.8 86 0.8 N 0 0 0 0 1024.0 1024.3 0.0
22/06:30pm 5.5 3.9 2.3 80 1.3 NW 0 0 0 0 1024.1 - 0.0
22/06:00pm 7.1 5.5 2.6 73 1.9 CALM 0 0 0 0 1023.8 1024.1 0.0
22/05:30pm 9.4 7.3 2.0 60 3.1 SSW 2 6 1 3 1023.5 - 0.0
22/05:00pm 11.7 9.2 3.5 57 3.6 S 6 7 3 4 1023.3 1023.6 0.0
22/04:30pm 12.1 9.0 0.2 44 4.9 S 6 7 3 4 1023.5 - 0.0
22/04:00pm 12.6 9.3 0.4 43 5.1 S 7 11 4 6 1023.4 1023.7 0.0
22/03:30pm 12.9 10.4 3.6 53 4.2 SSE 6 13 3 7 1023.4 - 0.0
22/03:00pm 13.0 10.5 4.9 58 3.7 S 7 13 4 7 1023.7 1024.0 0.0
22/02:30pm 12.7 11.2 4.9 59 3.6 SSW 2 9 1 5 1023.8 - 0.0
22/02:00pm 12.7 10.7 4.4 57 3.8 W 4 9 2 5 1023.9 1024.2 0.0
22/01:30pm 12.7 10.8 4.9 59 3.6 WSW 4 7 2 4 1024.3 - 0.0
22/01:00pm 12.1 11.0 5.0 62 3.3 CALM 0 7 0 4 1024.7 1025.0 0.0
22/12:30pm 10.7 8.1 4.4 65 2.8 SSE 7 9 4 5 1025.1 - 0.0
22/12:00pm 10.8 9.5 5.8 71 2.3 ENE 2 9 1 5 1025.6 1025.9 0.0
22/11:30am 9.7 8.0 5.9 77 1.8 WNW 4 7 2 4 1026.2 - 0.0
22/11:00am 8.9 7.3 6.5 85 1.1 NNE 4 7 2 4 1026.7 1026.9 0.0
22/10:30am 6.7 5.1 6.3 97 0.2 SE 4 7 2 4 1026.8 - 0.0
22/10:00am 4.6 2.6 4.5 99 0.0 SSE 4 7 2 4 1027.0 1027.2 0.0
22/09:30am 2.4 0.0 2.4 100 0.0 S 4 7 2 4 1026.9 - 0.0
22/09:00am 0.7 -1.2 0.7 100 0.0 SSW 0 0 0 0 1026.7 1026.9 0.2
22/08:30am -0.9 -3.0 -1.0 99 0.0 CALM 0 0 0 0 1026.4 - 0.0
22/08:00am -3.2 -6.4 -3.3 99 -0.1 S 4 7 2 4 1025.9 1026.2 0.0
22/07:30am -2.9 -5.3 -3.0 99 -0.1 CALM 0 0 0 0 1025.7 - 0.0
22/07:00am -2.5 -4.8 -2.6 99 -0.1 CALM 0 0 0 0 1025.3 1025.6 0.0
22/06:30am -2.2 -5.3 -2.3 99 -0.1 S 4 6 2 3 1025.0 - 0.0
22/06:00am -1.8 -4.8 -1.9 99 0.0 SSW 4 9 2 5 1024.7 1025.0 0.0
22/05:30am -1.4 -4.0 -1.5 99 0.0 SE 2 6 1 3 1024.7 - 0.0
22/05:00am -1.0 -4.3 -1.1 99 0.0 S 6 9 3 5 1024.6 1024.9 0.0
22/04:30am -1.0 -3.9 -1.1 99 0.0 SW 4 7 2 4 1024.6 - 0.0
22/04:00am -1.1 -3.3 -1.2 99 0.0 CALM 0 0 0 0 1024.5 1024.8 0.0
22/03:30am -1.0 -3.5 -1.1 99 0.0 S 2 6 1 3 1024.7 - 0.0
22/03:00am -0.6 -3.1 -0.7 99 0.0 SSW 2 6 1 3 1024.7 1025.0 0.0
22/02:30am -0.1 -2.1 -0.2 99 0.0 CALM 0 0 0 0 1024.6 - 0.0
22/02:00am 0.5 -1.4 0.4 99 0.0 CALM 0 0 0 0 1024.8 1025.1 0.0
22/01:30am 0.6 -1.7 0.5 99 0.0 SE 2 6 1 3 1024.6 - 0.0
22/01:00am 1.4 -0.8 1.3 99 0.0 S 2 6 1 3 1024.7 1025.0 0.0
22/12:30am 2.3 0.7 2.2 99 0.0 CALM 0 4 0 2 1024.8 - 0.0
22/12:00am 2.9 1.0 2.8 99 0.0 W 2 7 1 4 1024.7 1025.0 0.0
 
Date/Time
EST
Temp
°C
App
Temp
°C
Dew
Point
Rel
Hum
%
Delta-T
°C
Wind Press
QNH
hPa
Press
MSL
hPa
Rain
since 9 am
mm
Dir
 
Spd
km/h
Gust
km/h
Spd
kts
Gust
kts
21/11:30pm 3.9 1.8 3.8 99 0.0 WNW 4 9 2 5 1024.7 - 0.0
21/11:00pm 3.6 0.9 3.5 99 0.0 ESE 7 11 4 6 1024.8 1025.1 0.0
21/10:30pm 3.6 2.2 3.5 99 0.0 CALM 0 6 0 3 1024.9 - 0.0
21/10:00pm 3.6 2.2 3.5 99 0.0 CALM 0 0 0 0 1024.9 1025.2 0.0
21/09:30pm 3.7 1.9 3.6 99 0.0 E 2 6 1 3 1024.9 - 0.0
21/09:00pm 4.8 2.9 4.7 99 0.0 ENE 4 6 2 3 1025.0 1025.3 0.0
21/08:30pm 6.0 3.4 5.9 99 0.0 NE 9 11 5 6 1024.8 - 0.0
21/08:00pm 4.6 2.1 4.5 99 0.0 ENE 7 9 4 5 1024.7 1025.0 0.0
21/07:30pm 4.7 2.1 4.0 95 0.3 E 7 7 4 4 1024.7 - 0.0
21/07:00pm 5.8 3.5 4.6 92 0.5 ENE 6 7 3 4 1024.6 1024.9 0.0
21/06:30pm 7.3 5.1 5.4 88 0.9 NE 6 7 3 4 1024.4 - 0.0
21/06:00pm 8.1 6.0 5.7 85 1.1 NE 6 7 3 4 1024.2 1024.5 0.0
21/05:30pm 9.0 6.7 5.7 80 1.5 ENE 7 9 4 5 1024.0 - 0.0
21/05:00pm 10.3 8.0 5.5 72 2.2 ENE 7 11 4 6 1023.9 1024.2 0.0
21/04:30pm 10.8 8.6 6.0 72 2.2 NNE 7 9 4 5 1023.9 - 0.0
21/04:00pm 11.4 9.1 5.7 68 2.6 ENE 7 11 4 6 1023.7 1024.0 0.0
21/03:30pm 11.6 9.0 5.9 68 2.7 E 9 15 5 8 1023.6 - 0.0
21/03:00pm 11.6 9.5 6.5 71 2.4 NE 7 9 4 5 1023.6 1023.9 0.0
21/02:30pm 11.3 8.7 6.0 70 2.5 NE 9 13 5 7 1023.6 - 0.0
21/02:00pm 11.4 8.8 6.1 70 2.5 ENE 9 15 5 8 1023.8 1024.1 0.0
21/01:30pm 11.0 8.7 7.3 78 1.8 NE 9 17 5 9 1024.2 - 0.0
21/01:00pm 10.1 7.2 6.3 77 1.8 NE 11 17 6 9 1024.6 1024.9 0.0
21/12:30pm 9.9 7.0 6.4 79 1.6 NE 11 17 6 9 1025.0 - 0.0
21/12:00pm 9.6 6.3 6.5 81 1.4 ENE 13 17 7 9 1025.4 1025.7 0.0
21/11:30am 9.1 6.7 7.1 87 0.9 ENE 9 13 5 7 1026.0 - 0.0
21/11:00am 8.3 5.9 6.9 91 0.7 NE 9 13 5 7 1026.2 1026.5 0.0
21/10:30am 6.7 4.2 6.7 100 0.0 E 9 13 5 7 1026.1 - 0.0
21/10:00am 5.6 3.3 5.6 100 0.0 E 7 9 4 5 1026.5 1026.7 0.0
21/09:30am 4.6 2.3 4.6 100 0.0 ESE 6 9 3 5 1026.5 - 0.0
21/09:00am 3.3 1.1 3.3 100 0.0 W 4 7 2 4 1026.5 1026.7 0.0
21/08:30am 2.2 -0.6 2.2 100 0.0 W 6 9 3 5 1026.0 - 0.0
21/08:00am 1.4 -0.8 1.3 99 0.0 E 2 7 1 4 1025.3 1025.6 0.0
21/07:30am 0.3 -3.0 0.2 99 0.0 SE 7 9 4 5 1025.4 - 0.0
21/07:00am 0.5 -1.4 0.4 99 0.0 CALM 0 0 0 0 1025.5 1025.8 0.0
21/06:30am 0.2 -1.8 0.1 99 0.0 CALM 0 0 0 0 1025.3 - 0.0
21/06:00am 0.1 -1.9 0.0 99 0.0 CALM 0 0 0 0 1025.1 1025.4 0.0
21/05:30am 0.0 -2.0 -0.1 99 0.0 CALM 0 0 0 0 1025.1 - 0.0
21/05:00am -0.5 -2.6 -0.6 99 0.0 CALM 0 0 0 0 1025.1 1025.4 0.0
21/04:30am -0.3 -2.3 -0.4 99 0.0 CALM 0 0 0 0 1025.0 - 0.0
21/04:00am 0.4 -1.5 0.3 99 0.0 CALM 0 0 0 0 1025.2 1025.5 0.0
21/03:30am 0.6 -1.3 0.5 99 0.0 CALM 0 0 0 0 1025.5 - 0.0
21/03:00am 0.4 -2.7 0.3 99 0.0 SSE 6 7 3 4 1025.6 1025.9 0.0
21/02:30am 1.3 -0.5 1.2 99 0.0 CALM 0 0 0 0 1025.6 - 0.0
21/02:00am 2.0 0.3 1.9 99 0.0 CALM 0 0 0 0 1025.6 1025.9 0.0
21/01:30am 2.0 0.3 1.9 99 0.0 CALM 0 0 0 0 1025.7 - 0.0
21/01:00am 2.3 0.7 2.2 99 0.0 CALM 0 0 0 0 1025.8 1026.1 0.0
21/12:30am 2.0 0.3 1.9 99 0.0 CALM 0 0 0 0 1025.7 - 0.0
21/12:00am 2.7 1.1 2.6 99 0.0 CALM 0 0 0 0 1026.2 1026.5 0.0
 
Date/Time
EST
Temp
°C
App
Temp
°C
Dew
Point
Rel
Hum
%
Delta-T
°C
Wind Press
QNH
hPa
Press
MSL
hPa
Rain
since 9 am
mm
Dir
 
Spd
km/h
Gust
km/h
Spd
kts
Gust
kts
20/11:30pm 2.1 0.0 2.0 99 0.0 S 2 7 1 4 1026.4 - 0.0
20/11:00pm 3.2 1.7 3.1 99 0.0 CALM 0 0 0 0 1026.4 1026.6 0.0
20/10:30pm 3.2 1.7 3.1 99 0.0 CALM 0 0 0 0 1026.4 - 0.0
20/10:00pm 3.5 2.1 3.4 99 0.0 CALM 0 0 0 0 1026.4 1026.6 0.0
20/09:30pm 3.4 2.0 3.3 99 0.0 CALM 0 0 0 0 1026.5 - 0.0
20/09:00pm 4.2 2.9 4.1 99 0.0 CALM 0 0 0 0 1026.7 1026.9 0.0
20/08:30pm 4.5 3.3 4.4 99 0.0 CALM 0 0 0 0 1026.7 - 0.0
20/08:00pm 4.3 3.0 4.2 99 0.0 CALM 0 0 0 0 1026.6 1026.8 0.0
20/07:30pm 4.6 3.4 4.5 99 0.0 CALM 0 0 0 0 1026.6 - 0.0
20/07:00pm 5.3 4.2 4.9 97 0.2 CALM 0 0 0 0 1026.2 1026.5 0.0
20/06:30pm 6.2 5.1 5.3 94 0.4 CALM 0 0 0 0 1026.1 - 0.0
20/06:00pm 7.0 6.1 6.1 94 0.4 CALM 0 0 0 0 1026.1 1026.4 0.0
20/05:30pm 7.8 6.9 6.1 89 0.8 CALM 0 0 0 0 1026.1 - 0.0
20/05:00pm 8.9 6.7 6.3 84 1.2 SSW 7 9 4 5 1026.1 1026.4 0.0
20/04:30pm 10.1 8.4 6.1 76 1.9 S 4 9 2 5 1026.0 - 0.0
20/04:00pm 11.9 9.7 6.0 67 2.8 S 7 11 4 6 1026.2 1026.5 0.0
20/03:30pm 11.7 10.4 6.0 68 2.7 S 2 6 1 3 1026.4 - 0.0
20/03:00pm 12.3 10.3 6.4 67 2.8 S 6 9 3 5 1026.4 1026.6 0.0
20/02:30pm 12.4 10.3 5.6 63 3.2 S 6 7 3 4 1026.2 - 0.0
20/02:00pm 12.4 10.2 5.3 62 3.3 W 6 9 3 5 1026.7 1026.9 0.0
20/01:30pm 12.5 10.4 5.7 63 3.2 W 6 9 3 5 1027.1 - 0.0
20/01:00pm 12.1 9.6 4.8 61 3.3 NNW 7 11 4 6 1027.6 1027.8 0.0
20/12:30pm 10.9 8.7 5.4 69 2.5 SE 6 9 3 5 1027.9 - 0.0
20/12:00pm 11.1 8.8 5.6 69 2.5 ESE 7 11 4 6 1028.3 1028.5 0.0
20/11:30am 9.4 7.4 7.0 85 1.1 SSE 7 9 4 5 1028.8 - 0.0
20/11:00am 8.8 6.6 7.7 93 0.5 ESE 9 15 5 8 1028.9 1029.2 0.0
20/10:30am 8.0 5.8 7.9 99 0.0 SSE 9 13 5 7 1029.1 - 0.0
20/10:00am 6.7 4.2 6.7 100 0.0 S 9 13 5 7 1029.1 1029.4 0.0
20/09:30am 6.2 3.6 6.2 100 0.0 SSE 9 13 5 7 1028.9 - 0.0
20/09:00am 5.7 3.4 5.7 100 0.0 SSE 7 11 4 6 1029.0 1029.3 0.0
20/08:30am 5.2 3.0 5.2 100 0.0 S 6 11 3 6 1028.9 - 0.0
20/08:00am 3.1 0.3 3.0 99 0.0 S 7 11 4 6 1028.5 1028.8 0.0
20/07:30am 0.3 -1.7 0.2 99 0.0 CALM 0 0 0 0 1028.1 - 0.0
20/07:00am -0.8 -4.1 -0.9 99 0.0 S 6 7 3 4 1028.0 1028.2 0.0
20/06:30am -0.6 -3.1 -0.7 99 0.0 S 2 6 1 3 1028.0 - 0.0
20/06:00am -0.9 -3.4 -1.0 99 0.0 S 2 6 1 3 1027.8 1028.0 0.0
20/05:30am -0.7 -2.8 -0.8 99 0.0 CALM 0 0 0 0 1027.9 - 0.0
20/05:00am -1.3 -3.5 -1.4 99 0.0 CALM 0 0 0 0 1028.1 1028.3 0.0
20/04:30am -1.0 -3.1 -1.1 99 0.0 CALM 0 0 0 0 1028.0 - 0.0
20/04:00am -0.3 -2.3 -0.4 99 0.0 CALM 0 0 0 0 1028.0 1028.2 0.0
20/03:30am -0.1 -2.1 -0.2 99 0.0 CALM 0 0 0 0 1028.0 - 0.0
20/03:00am -0.1 -2.1 -0.2 99 0.0 CALM 0 0 0 0 1028.1 1028.3 0.0
20/02:30am 0.4 -1.5 0.3 99 0.0 CALM 0 0 0 0 1028.3 - 0.0
20/02:00am 0.8 -1.1 0.7 99 0.0 CALM 0 0 0 0 1028.2 1028.4 0.0
20/01:30am 1.0 -1.2 0.9 99 0.0 S 2 6 1 3 1028.2 - 0.0
20/01:00am 1.5 -0.6 1.4 99 0.0 S 2 6 1 3 1028.5 1028.8 0.0
20/12:30am 2.0 -0.8 1.9 99 0.0 S 6 9 3 5 1028.8 - 0.0
20/12:00am 1.8 -1.1 1.7 99 0.0 S 6 7 3 4 1029.1 1029.4 0.0
 
Date/Time
EST
Temp
°C
App
Temp
°C
Dew
Point
Rel
Hum
%
Delta-T
°C
Wind Press
QNH
hPa
Press
MSL
hPa
Rain
since 9 am
mm
Dir
 
Spd
km/h
Gust
km/h
Spd
kts
Gust
kts
19/11:30pm 2.5 -0.4 2.4 99 0.0 SSW 7 9 4 5 1029.3 - 0.0
19/11:00pm 2.8 1.2 2.7 99 0.0 CALM 0 6 0 3 1029.4 1029.7 0.0
19/10:30pm 3.1 0.5 3.0 99 0.0 S 6 7 3 4 1029.4 - 0.0
19/10:00pm 3.0 0.1 2.7 98 0.1 SSE 7 9 4 5 1029.6 1029.9 0.0
19/09:30pm 3.4 0.7 2.8 96 0.2 S 6 9 3 5 1030.0 - 0.0
19/09:00pm 4.0 1.2 3.1 94 0.4 S 7 11 4 6 1030.1 1030.4 0.0
19/08:30pm 4.7 2.0 3.8 94 0.4 S 7 9 4 5 1030.1 - 0.0
19/08:00pm 5.2 2.2 3.9 91 0.5 S 9 11 5 6 1030.0 1030.3 0.0
19/07:30pm 6.3 3.4 4.8 90 0.7 S 9 13 5 7 1030.1 - 0.0

Other Formats:

Comma delimited format used in spreadsheet applications
http://www.bom.gov.au/fwo/IDV60801/IDV60801.94839.axf

JavaScript Object Notation format (JSON) in row-major order
http://www.bom.gov.au/fwo/IDV60801/IDV60801.94839.json